createdAt,value
2017-12-08T00:00:18.481Z,18.60
2017-12-08T00:02:45.925Z,23.53
2017-12-08T00:05:14.165Z,17.60
2017-12-08T00:07:41.596Z,20.77
2017-12-08T00:10:09.770Z,21.20
2017-12-08T00:12:37.340Z,22.03
2017-12-08T00:15:04.758Z,21.53
2017-12-08T00:17:32.160Z,20.67
2017-12-08T00:19:59.565Z,20.93
2017-12-08T00:22:27.795Z,16.33
2017-12-08T00:24:55.194Z,19.93
2017-12-08T00:27:22.717Z,25.73
2017-12-08T00:29:50.163Z,25.60
2017-12-08T00:32:18.351Z,26.47
2017-12-08T00:34:46.557Z,21.50
2017-12-08T00:37:14.048Z,21.03
2017-12-08T00:39:41.474Z,36.90
2017-12-08T00:42:08.885Z,27.80
2017-12-08T00:44:36.318Z,32.37
2017-12-08T00:47:03.793Z,26.30
2017-12-08T00:49:31.971Z,34.30
2017-12-08T00:52:00.194Z,29.37
2017-12-08T00:54:27.654Z,27.03
2017-12-08T00:56:55.122Z,38.07
2017-12-08T00:59:22.611Z,28.77
2017-12-08T01:01:50.021Z,35.80
2017-12-08T01:04:17.432Z,30.57
2017-12-08T01:06:44.871Z,27.50
2017-12-08T01:09:13.094Z,31.40
2017-12-08T01:11:40.494Z,35.03
2017-12-08T01:14:07.946Z,33.37
2017-12-08T01:16:35.373Z,27.20
2017-12-08T01:19:02.766Z,37.57
2017-12-08T01:21:30.305Z,28.67
2017-12-08T01:23:57.707Z,43.00
2017-12-08T01:26:25.189Z,36.33
2017-12-08T01:28:52.619Z,35.30
2017-12-08T01:31:20.841Z,30.37
2017-12-08T01:33:48.267Z,37.83
2017-12-08T01:36:15.695Z,33.60
2017-12-08T01:38:43.148Z,29.57
2017-12-08T01:41:10.543Z,34.23
2017-12-08T01:43:37.958Z,24.53
2017-12-08T01:46:06.174Z,18.80
2017-12-08T01:48:33.581Z,20.30
2017-12-08T01:51:01.024Z,24.30
2017-12-08T01:53:28.441Z,25.37
2017-12-08T01:55:56.655Z,26.37
2017-12-08T01:58:24.066Z,29.43
2017-12-08T02:00:51.493Z,21.20
2017-12-08T02:03:18.890Z,35.47
2017-12-08T02:05:46.392Z,32.50
2017-12-08T02:08:13.853Z,39.73
2017-12-08T02:10:41.284Z,29.27
2017-12-08T02:13:08.797Z,35.47
2017-12-08T02:15:36.251Z,24.33
2017-12-08T02:18:03.708Z,36.30
2017-12-08T02:20:31.265Z,32.33
2017-12-08T02:22:59.419Z,26.33
2017-12-08T02:25:27.597Z,36.57
2017-12-08T02:27:55.793Z,34.40
2017-12-08T02:30:23.974Z,32.37
2017-12-08T02:32:52.162Z,31.83
2017-12-08T02:35:20.393Z,32.77
2017-12-08T02:37:47.871Z,37.60
2017-12-08T02:40:15.382Z,33.20
2017-12-08T02:42:42.791Z,41.53
2017-12-08T02:45:10.369Z,36.03
2017-12-08T02:47:37.846Z,32.53
2017-12-08T02:50:05.285Z,33.00
2017-12-08T02:52:32.767Z,24.93
2017-12-08T02:55:00.179Z,36.67
2017-12-08T02:57:27.656Z,31.93
2017-12-08T02:59:55.080Z,21.43
2017-12-08T03:02:22.550Z,32.10
2017-12-08T03:04:49.950Z,34.80
2017-12-08T03:07:17.403Z,21.93
2017-12-08T03:09:44.789Z,41.10
2017-12-08T03:12:12.258Z,37.77
2017-12-08T03:14:39.658Z,20.00
2017-12-08T03:17:07.169Z,26.53
2017-12-08T03:19:34.574Z,30.47
2017-12-08T03:22:01.998Z,33.60
2017-12-08T03:24:29.407Z,32.87
2017-12-08T03:26:56.814Z,30.80
2017-12-08T03:29:24.988Z,22.30
2017-12-08T03:31:52.549Z,23.47
2017-12-08T03:34:19.974Z,19.70
2017-12-08T03:36:47.394Z,38.33
2017-12-08T03:39:14.844Z,21.33
2017-12-08T03:41:42.270Z,18.03
2017-12-08T03:44:09.749Z,24.90
2017-12-08T03:46:37.225Z,28.25
2017-12-08T03:49:04.694Z,20.90
2017-12-08T03:51:32.922Z,34.43
2017-12-08T03:54:00.338Z,27.90
2017-12-08T03:56:28.598Z,30.63
2017-12-08T03:58:56.114Z,39.80
2017-12-08T04:01:23.574Z,26.10
2017-12-08T04:03:50.997Z,29.90
2017-12-08T04:06:18.432Z,29.87
2017-12-08T04:08:45.911Z,30.15
2017-12-08T04:11:13.324Z,33.20
2017-12-08T04:13:40.755Z,25.63
2017-12-08T04:16:08.194Z,37.63
2017-12-08T04:18:36.418Z,31.20
2017-12-08T04:21:03.844Z,28.60
2017-12-08T04:23:31.335Z,27.30
2017-12-08T04:25:58.754Z,22.60
2017-12-08T04:28:26.189Z,28.03
2017-12-08T04:30:53.618Z,30.10
2017-12-08T04:33:21.806Z,31.23
2017-12-08T04:35:49.989Z,25.60
2017-12-08T04:38:18.194Z,26.97
2017-12-08T04:40:45.607Z,31.25
2017-12-08T04:43:13.245Z,33.00
2017-12-08T04:45:40.646Z,35.53
2017-12-08T04:48:08.054Z,29.03
2017-12-08T04:50:36.246Z,23.95
2017-12-08T04:53:03.726Z,26.90
2017-12-08T04:55:31.203Z,41.23
2017-12-08T04:57:58.673Z,18.43
2017-12-08T05:00:26.156Z,21.50
2017-12-08T05:02:53.548Z,34.43
2017-12-08T05:05:21.091Z,29.25
2017-12-08T05:07:48.499Z,24.17
2017-12-08T05:10:16.029Z,25.57
2017-12-08T05:12:43.479Z,24.70
2017-12-08T05:15:10.910Z,20.03
2017-12-08T05:17:38.433Z,25.70
2017-12-08T05:20:05.843Z,20.10
2017-12-08T05:22:33.362Z,23.30
2017-12-08T05:25:00.832Z,19.87
2017-12-08T05:27:28.978Z,28.40
2017-12-08T05:29:57.207Z,24.48
2017-12-08T05:32:24.665Z,26.45
2017-12-08T05:34:52.093Z,23.87
2017-12-08T05:37:20.272Z,21.08
2017-12-08T05:39:47.696Z,29.60
2017-12-08T05:42:15.105Z,26.63
2017-12-08T05:44:42.531Z,19.67
2017-12-08T05:47:09.941Z,36.43
2017-12-08T05:49:37.469Z,21.00
2017-12-08T05:52:04.931Z,28.15
2017-12-08T05:54:32.338Z,23.87
2017-12-08T05:56:59.746Z,33.10
2017-12-08T05:59:27.166Z,33.13
2017-12-08T06:01:54.576Z,23.30
2017-12-08T06:04:22.789Z,18.60
2017-12-08T06:06:50.210Z,22.20
2017-12-08T06:09:17.721Z,17.67
2017-12-08T06:11:45.155Z,18.20
2017-12-08T06:14:12.561Z,22.20
2017-12-08T06:16:40.044Z,18.50
2017-12-08T06:19:07.470Z,23.85
2017-12-08T06:21:35.682Z,17.92
2017-12-08T06:24:03.087Z,17.67
2017-12-08T06:26:30.508Z,11.60
2017-12-08T06:28:57.986Z,10.80
2017-12-08T06:31:26.962Z,14.30
2017-12-08T06:33:55.150Z,11.38
2017-12-08T06:36:23.372Z,12.57
2017-12-08T06:38:50.797Z,16.55
2017-12-08T06:41:18.221Z,14.37
2017-12-08T06:43:45.684Z,11.77
2017-12-08T06:46:13.148Z,8.02
2017-12-08T06:48:40.553Z,11.07
2017-12-08T06:51:09.487Z,11.05
2017-12-08T06:53:37.702Z,7.87
2017-12-08T06:56:05.121Z,9.15
2017-12-08T06:58:32.546Z,6.60
2017-12-08T07:00:59.962Z,13.77
2017-12-08T07:03:28.155Z,17.45
2017-12-08T07:05:56.383Z,10.55
2017-12-08T07:08:23.845Z,15.13
2017-12-08T07:10:51.262Z,14.30
2017-12-08T07:13:18.783Z,7.43
2017-12-08T07:15:46.208Z,7.10
2017-12-08T07:18:13.636Z,8.95
2017-12-08T07:20:41.252Z,12.63
2017-12-08T07:23:08.758Z,13.02
2017-12-08T07:25:36.207Z,16.50
2017-12-08T07:28:03.630Z,12.23
2017-12-08T07:30:31.056Z,13.07
2017-12-08T07:32:58.466Z,13.48
2017-12-08T07:35:25.904Z,16.20
2017-12-08T07:37:54.070Z,11.43
2017-12-08T07:40:22.384Z,14.63
2017-12-08T07:42:49.778Z,13.00
2017-12-08T07:45:17.194Z,12.50
2017-12-08T07:47:44.693Z,22.40
2017-12-08T07:50:12.158Z,20.85
2017-12-08T07:52:39.549Z,17.33
2017-12-08T07:55:06.991Z,14.32
2017-12-08T07:57:34.413Z,17.23
2017-12-08T08:00:02.607Z,27.45
2017-12-08T08:02:30.792Z,14.75
2017-12-08T08:04:58.969Z,17.23
2017-12-08T08:07:27.154Z,19.60
2017-12-08T08:09:54.573Z,18.70
2017-12-08T08:12:22.079Z,15.98
2017-12-08T08:14:49.607Z,10.48
2017-12-08T08:17:17.194Z,14.07
2017-12-08T08:19:44.660Z,15.95
2017-12-08T08:22:12.081Z,17.37
2017-12-08T08:24:40.282Z,15.90
2017-12-08T08:27:08.050Z,18.73
2017-12-08T08:29:36.583Z,26.12
2017-12-08T08:32:04.040Z,16.95
2017-12-08T08:34:31.509Z,23.52
2017-12-08T08:36:58.901Z,15.32
2017-12-08T08:39:26.350Z,35.67
2017-12-08T08:41:53.770Z,18.98
2017-12-08T08:44:21.190Z,23.98
2017-12-08T08:46:48.646Z,25.50
2017-12-08T08:49:16.119Z,16.23
2017-12-08T08:51:43.562Z,15.40
2017-12-08T08:54:11.784Z,20.55
2017-12-08T08:56:39.188Z,16.10
2017-12-08T08:59:07.385Z,25.55
2017-12-08T09:01:35.586Z,29.50
2017-12-08T09:04:03.768Z,21.27
2017-12-08T09:06:31.970Z,18.33
2017-12-08T09:08:59.395Z,18.92
2017-12-08T09:11:26.818Z,16.83
2017-12-08T09:13:54.234Z,20.05
2017-12-08T09:16:21.672Z,18.85
2017-12-08T09:18:49.085Z,16.25
2017-12-08T09:21:16.599Z,22.37
2017-12-08T09:23:44.039Z,23.83
2017-12-08T09:26:12.228Z,19.35
2017-12-08T09:28:40.445Z,20.17
2017-12-08T09:31:08.006Z,23.12
2017-12-08T09:33:35.606Z,18.80
2017-12-08T09:36:03.171Z,25.20
2017-12-08T09:38:30.630Z,21.67
2017-12-08T09:40:58.068Z,15.73
2017-12-08T09:43:26.380Z,12.60
2017-12-08T09:45:53.798Z,15.70
2017-12-08T09:48:21.468Z,15.80
2017-12-08T09:50:49.344Z,19.10
2017-12-08T09:53:16.876Z,14.90
2017-12-08T09:55:44.286Z,15.35
2017-12-08T09:58:11.722Z,12.57
2017-12-08T10:00:39.278Z,21.48
2017-12-08T10:03:06.752Z,13.57
2017-12-08T10:05:34.184Z,18.48
2017-12-08T10:08:02.366Z,21.48
2017-12-08T10:10:30.571Z,26.52
2017-12-08T10:12:58.157Z,21.17
2017-12-08T10:15:25.561Z,13.50
2017-12-08T10:17:52.995Z,29.52
2017-12-08T10:20:20.476Z,21.23
2017-12-08T10:22:47.916Z,21.42
2017-12-08T10:25:15.331Z,21.17
2017-12-08T10:27:42.754Z,16.70
2017-12-08T10:30:10.187Z,25.55
2017-12-08T10:32:37.709Z,15.60
2017-12-08T10:35:05.861Z,19.98
2017-12-08T10:37:34.187Z,17.75
2017-12-08T10:40:01.599Z,17.73
2017-12-08T10:42:29.026Z,20.52
2017-12-08T10:44:56.437Z,14.13
2017-12-08T10:47:24.647Z,18.00
2017-12-08T10:49:52.830Z,20.12
2017-12-08T10:52:21.033Z,12.35
2017-12-08T10:54:48.450Z,15.38
2017-12-08T10:57:15.898Z,16.70
2017-12-08T10:59:43.323Z,12.93
2017-12-08T11:02:11.510Z,10.98
2017-12-08T11:04:39.734Z,18.67
2017-12-08T11:07:07.297Z,18.23
2017-12-08T11:09:34.694Z,10.13
2017-12-08T11:12:02.112Z,20.55
2017-12-08T11:14:30.318Z,6.55
2017-12-08T11:16:57.753Z,14.73
2017-12-08T11:19:25.978Z,10.67
2017-12-08T11:21:54.161Z,9.27
2017-12-08T11:24:21.591Z,8.40
2017-12-08T11:26:49.006Z,10.30
2017-12-08T11:29:16.438Z,13.40
2017-12-08T11:31:44.625Z,13.57
2017-12-08T11:34:12.834Z,14.00
2017-12-08T11:36:40.250Z,12.73
2017-12-08T11:39:07.690Z,18.53
2017-12-08T11:41:35.150Z,12.43
2017-12-08T11:44:02.586Z,11.93
2017-12-08T11:46:30.810Z,14.00
2017-12-08T11:48:58.242Z,12.43
2017-12-08T11:51:26.401Z,11.10
2017-12-08T11:53:54.049Z,19.23
2017-12-08T11:56:21.431Z,11.47
2017-12-08T11:58:48.830Z,18.70
2017-12-08T12:01:16.327Z,13.50
2017-12-08T12:03:43.746Z,14.50
2017-12-08T12:06:11.170Z,15.30
2017-12-08T12:08:38.608Z,12.95
2017-12-08T12:11:06.791Z,13.13
2017-12-08T12:13:34.214Z,10.57
2017-12-08T12:16:01.642Z,10.13
2017-12-08T12:18:29.078Z,15.82
2017-12-08T12:20:56.586Z,10.27
2017-12-08T12:23:24.077Z,8.60
2017-12-08T12:25:51.489Z,11.77
2017-12-08T12:28:19.682Z,9.07
2017-12-08T12:30:47.870Z,13.50
2017-12-08T12:33:16.050Z,10.40
2017-12-08T12:35:44.249Z,11.85
2017-12-08T12:38:11.744Z,17.35
2017-12-08T12:40:39.137Z,10.40
2017-12-08T12:43:06.595Z,12.32
2017-12-08T12:45:34.149Z,12.57
2017-12-08T12:48:01.542Z,14.75
2017-12-08T12:50:28.965Z,13.82
2017-12-08T12:52:56.386Z,14.23
2017-12-08T12:55:23.818Z,16.55
2017-12-08T12:57:51.232Z,12.05
2017-12-08T13:00:18.643Z,12.07
2017-12-08T13:02:46.126Z,16.10
2017-12-08T13:05:13.609Z,15.30
2017-12-08T13:07:41.062Z,17.75
2017-12-08T13:10:08.573Z,15.68
2017-12-08T13:12:35.953Z,13.43
2017-12-08T13:15:04.131Z,13.10
2017-12-08T13:17:31.537Z,8.43
2017-12-08T13:19:58.964Z,15.52
2017-12-08T13:22:27.878Z,10.85
2017-12-08T13:24:56.066Z,10.93
2017-12-08T13:27:24.257Z,17.30
2017-12-08T13:29:52.450Z,13.02
2017-12-08T13:32:20.635Z,14.45
2017-12-08T13:34:48.819Z,10.70
2017-12-08T13:37:17.010Z,12.85
2017-12-08T13:39:45.222Z,9.80
2017-12-08T13:42:12.689Z,10.05
2017-12-08T13:44:40.121Z,9.23
2017-12-08T13:47:08.310Z,8.20
2017-12-08T13:49:36.851Z,8.85
2017-12-08T13:52:04.234Z,8.75
2017-12-08T13:54:43.661Z,6.40
2017-12-08T13:57:11.831Z,12.68
2017-12-08T13:59:39.268Z,7.55
2017-12-08T14:02:06.669Z,9.45
2017-12-08T14:04:34.252Z,13.02
2017-12-08T14:07:02.426Z,8.73
2017-12-08T14:09:29.890Z,10.60
2017-12-08T14:11:58.089Z,10.20
2017-12-08T14:14:25.513Z,11.43
2017-12-08T14:16:53.134Z,11.45
2017-12-08T14:19:21.297Z,14.93
2017-12-08T14:21:48.715Z,8.63
2017-12-08T14:24:16.126Z,8.77
2017-12-08T14:26:44.334Z,8.17
2017-12-08T14:29:11.839Z,10.40
2017-12-08T14:31:39.249Z,9.57
2017-12-08T14:34:07.438Z,8.27
2017-12-08T14:36:35.614Z,10.70
2017-12-08T14:39:03.822Z,9.95
2017-12-08T14:41:31.294Z,8.98
2017-12-08T14:43:58.724Z,10.60
2017-12-08T14:46:26.142Z,11.50
2017-12-08T14:48:53.614Z,10.80
2017-12-08T14:51:21.025Z,12.10
2017-12-08T14:53:48.446Z,11.10
2017-12-08T14:56:15.863Z,11.15
2017-12-08T14:58:43.281Z,10.25
2017-12-08T15:01:10.716Z,12.05
2017-12-08T15:03:38.227Z,10.57
2017-12-08T15:06:05.642Z,10.25
2017-12-08T15:08:33.062Z,9.68
2017-12-08T15:11:00.482Z,10.68
2017-12-08T15:13:27.994Z,11.80
2017-12-08T15:15:55.462Z,9.20
2017-12-08T15:18:22.874Z,11.00
2017-12-08T15:20:50.294Z,9.75
2017-12-08T15:23:17.727Z,9.50
2017-12-08T15:25:45.158Z,8.73
2017-12-08T15:28:12.598Z,8.15
2017-12-08T15:30:40.073Z,10.73
2017-12-08T15:33:07.507Z,7.45
2017-12-08T15:35:35.718Z,9.70
2017-12-08T15:38:03.123Z,6.10
2017-12-08T15:40:30.526Z,6.68
2017-12-08T15:42:58.716Z,6.00
2017-12-08T15:45:26.890Z,5.72
2017-12-08T15:47:54.310Z,5.37
2017-12-08T15:50:21.728Z,5.18
2017-12-08T15:52:49.150Z,6.78
2017-12-08T15:55:16.566Z,7.90
2017-12-08T15:57:43.981Z,9.82
2017-12-08T16:00:11.439Z,7.60
2017-12-08T16:02:38.871Z,10.05
2017-12-08T16:05:07.050Z,8.00
2017-12-08T16:07:34.547Z,11.93
2017-12-08T16:10:02.011Z,9.63
2017-12-08T16:12:30.178Z,10.73
2017-12-08T16:14:58.411Z,11.10
2017-12-08T16:17:25.816Z,11.57
2017-12-08T16:19:53.227Z,11.93
2017-12-08T16:22:20.641Z,12.15
2017-12-08T16:24:48.085Z,16.80
2017-12-08T16:27:15.537Z,13.65
2017-12-08T16:29:43.098Z,11.45
2017-12-08T16:32:10.530Z,14.55
2017-12-08T16:34:38.012Z,9.13
2017-12-08T16:37:05.426Z,11.20
2017-12-08T16:39:32.900Z,10.88
2017-12-08T16:42:00.358Z,11.48
2017-12-08T16:44:27.754Z,9.85
2017-12-08T16:46:55.185Z,11.32
2017-12-08T16:49:22.649Z,14.23
2017-12-08T16:51:50.118Z,12.05
2017-12-08T16:54:17.540Z,9.77
2017-12-08T16:56:44.967Z,10.27
2017-12-08T16:59:12.377Z,10.90
2017-12-08T17:01:39.809Z,12.27
2017-12-08T17:04:07.271Z,8.38
2017-12-08T17:06:35.448Z,9.20
2017-12-08T17:09:02.866Z,13.20
2017-12-08T17:11:30.274Z,9.65
2017-12-08T17:13:57.759Z,10.48
2017-12-08T17:16:25.223Z,10.93
2017-12-08T17:18:52.638Z,14.20
2017-12-08T17:21:20.058Z,14.30
2017-12-08T17:23:47.538Z,13.50
2017-12-08T17:26:15.029Z,11.65
2017-12-08T17:28:42.576Z,9.60
2017-12-08T17:31:10.746Z,15.77
2017-12-08T17:33:38.223Z,12.18
2017-12-08T17:36:05.639Z,14.55
2017-12-08T17:38:33.062Z,15.65
2017-12-08T17:41:00.477Z,15.25
2017-12-08T17:43:27.899Z,13.57
2017-12-08T17:45:55.316Z,14.13
2017-12-08T17:48:22.730Z,14.43
2017-12-08T17:50:50.309Z,14.23
2017-12-08T17:53:18.458Z,14.80
2017-12-08T17:55:46.686Z,14.80
2017-12-08T17:58:14.089Z,14.05
2017-12-08T18:00:41.622Z,14.85
2017-12-08T18:03:09.085Z,16.30
2017-12-08T18:05:36.518Z,11.65
2017-12-08T18:08:04.681Z,14.77
2017-12-08T18:10:32.106Z,11.30
2017-12-08T18:12:59.669Z,18.45
2017-12-08T18:15:27.085Z,17.73
2017-12-08T18:17:54.515Z,18.25
2017-12-08T18:20:22.670Z,17.02
2017-12-08T18:22:50.888Z,19.35
2017-12-08T18:25:18.371Z,14.73
2017-12-08T18:27:45.785Z,10.98
2017-12-08T18:30:13.241Z,10.13
2017-12-08T18:32:40.640Z,12.82
2017-12-08T18:35:08.838Z,10.52
2017-12-08T18:37:36.274Z,13.38
2017-12-08T18:40:04.501Z,12.10
2017-12-08T18:42:31.914Z,8.95
2017-12-08T18:45:00.258Z,8.45
2017-12-08T18:47:27.645Z,9.57
2017-12-08T18:49:55.071Z,11.60
2017-12-08T18:52:23.252Z,9.57
2017-12-08T18:54:51.426Z,11.52
2017-12-08T18:57:18.842Z,19.23
2017-12-08T18:59:46.253Z,11.80
2017-12-08T19:02:13.673Z,8.77
2017-12-08T19:04:41.142Z,11.98
2017-12-08T19:07:08.546Z,7.47
2017-12-08T19:09:35.953Z,7.90
2017-12-08T19:12:03.542Z,13.25
2017-12-08T19:14:30.937Z,21.12
2017-12-08T19:16:58.386Z,11.23
2017-12-08T19:19:25.811Z,6.35
2017-12-08T19:21:54.026Z,12.60
2017-12-08T19:24:21.442Z,5.82
2017-12-08T19:26:48.841Z,9.93
2017-12-08T19:29:17.021Z,10.90
2017-12-08T19:31:44.429Z,16.48
2017-12-08T19:34:11.927Z,11.73
2017-12-08T19:36:39.376Z,12.00
2017-12-08T19:39:06.817Z,10.50
2017-12-08T19:41:34.228Z,8.60
2017-12-08T19:44:01.670Z,9.95
2017-12-08T19:46:29.090Z,16.77
2017-12-08T19:48:56.601Z,12.73
2017-12-08T19:51:24.077Z,17.73
2017-12-08T19:53:51.540Z,19.98
2017-12-08T19:56:19.702Z,17.00
2017-12-08T19:58:47.895Z,18.17
2017-12-08T20:01:16.063Z,17.92
2017-12-08T20:03:44.246Z,19.87
2017-12-08T20:06:12.478Z,20.62
2017-12-08T20:08:40.039Z,16.50
2017-12-08T20:11:07.458Z,13.65
2017-12-08T20:13:34.886Z,19.98
2017-12-08T20:16:02.358Z,26.60
2017-12-08T20:18:29.745Z,18.12
2017-12-08T20:20:57.169Z,19.80
2017-12-08T20:23:24.577Z,18.37
2017-12-08T20:25:51.994Z,26.10
2017-12-08T20:28:20.187Z,30.73
2017-12-08T20:30:48.411Z,24.37
2017-12-08T20:33:15.817Z,25.35
2017-12-08T20:35:44.021Z,34.60
2017-12-08T20:38:12.225Z,23.02
2017-12-08T20:40:39.680Z,26.40
2017-12-08T20:43:07.897Z,26.50
2017-12-08T20:45:35.313Z,28.50
2017-12-08T20:48:03.630Z,26.55
2017-12-08T20:50:31.043Z,36.53
2017-12-08T20:52:58.475Z,26.20
2017-12-08T20:55:25.874Z,25.75
2017-12-08T20:57:53.323Z,27.17
2017-12-08T21:00:20.729Z,35.35
2017-12-08T21:02:48.174Z,27.48
2017-12-08T21:05:15.617Z,28.02
2017-12-08T21:07:43.045Z,30.15
2017-12-08T21:10:10.474Z,33.03
2017-12-08T21:12:37.951Z,30.33
2017-12-08T21:15:05.334Z,38.85
2017-12-08T21:17:32.780Z,38.65
2017-12-08T21:20:00.204Z,26.92
2017-12-08T21:22:28.508Z,23.90
2017-12-08T21:24:55.906Z,33.72
2017-12-08T21:27:23.322Z,29.67
2017-12-08T21:29:51.506Z,27.77
2017-12-08T21:32:19.761Z,22.37
2017-12-08T21:34:47.181Z,26.58
2017-12-08T21:37:14.641Z,38.25
2017-12-08T21:39:42.849Z,35.22
2017-12-08T21:42:10.274Z,28.35
2017-12-08T21:44:37.782Z,19.92
2017-12-08T21:47:05.190Z,28.15
2017-12-08T21:49:32.615Z,25.30
2017-12-08T21:52:00.086Z,21.98
2017-12-08T21:54:27.498Z,29.58
2017-12-08T21:56:54.913Z,28.60
2017-12-08T21:59:22.381Z,33.30
2017-12-08T22:01:49.806Z,30.30
2017-12-08T22:04:17.231Z,31.37
2017-12-08T22:06:44.718Z,26.92
2017-12-08T22:09:12.142Z,21.25
2017-12-08T22:11:40.350Z,31.05
2017-12-08T22:14:07.763Z,22.80
2017-12-08T22:16:35.171Z,23.60
2017-12-08T22:19:03.506Z,25.15
2017-12-08T22:21:30.937Z,20.83
2017-12-08T22:23:59.197Z,20.20
2017-12-08T22:26:27.382Z,20.77
2017-12-08T22:28:55.638Z,22.05
2017-12-08T22:31:23.066Z,23.48
2017-12-08T22:33:50.540Z,16.20
2017-12-08T22:36:18.710Z,15.75
2017-12-08T22:38:46.122Z,21.80
2017-12-08T22:41:13.597Z,21.10
2017-12-08T22:43:41.010Z,21.10
2017-12-08T22:46:09.220Z,17.65
2017-12-08T22:48:36.628Z,16.62
2017-12-08T22:51:04.047Z,19.00
2017-12-08T22:53:31.490Z,15.75
2017-12-08T22:55:59.674Z,16.27
2017-12-08T22:58:27.899Z,18.12
2017-12-08T23:00:55.362Z,17.62
2017-12-08T23:03:22.811Z,17.00
2017-12-08T23:05:50.257Z,18.42
2017-12-08T23:08:17.873Z,16.48
2017-12-08T23:10:45.269Z,17.90
2017-12-08T23:13:12.709Z,17.17
2017-12-08T23:15:40.169Z,16.58
2017-12-08T23:18:07.590Z,14.38
2017-12-08T23:20:35.214Z,15.05
2017-12-08T23:23:03.367Z,15.65
2017-12-08T23:25:31.532Z,14.93
2017-12-08T23:27:59.158Z,14.85
2017-12-08T23:30:26.630Z,13.15
2017-12-08T23:32:54.046Z,16.12
2017-12-08T23:35:21.453Z,13.88
2017-12-08T23:37:48.954Z,18.23
2017-12-08T23:40:16.354Z,18.80
2017-12-08T23:42:43.841Z,13.82
2017-12-08T23:45:11.229Z,13.23
2017-12-08T23:47:38.647Z,12.60
2017-12-08T23:50:06.068Z,16.92
2017-12-08T23:52:33.480Z,15.05
2017-12-08T23:55:00.882Z,19.52
2017-12-08T23:57:29.062Z,13.68
2017-12-08T23:59:57.245Z,18.70
